createdAt,value
2023-04-20T00:00:49.135Z,100548.03
2023-04-20T00:03:22.888Z,100546.31
2023-04-20T00:05:53.340Z,100551.28
2023-04-20T00:08:23.591Z,100554.41
2023-04-20T00:10:54.062Z,100561.22
2023-04-20T00:13:24.179Z,100554.75
2023-04-20T00:15:54.396Z,100557.00
2023-04-20T00:18:24.531Z,100563.59
2023-04-20T00:20:54.717Z,100567.16
2023-04-20T00:23:24.987Z,100565.88
2023-04-20T00:25:56.013Z,100564.00
2023-04-20T00:28:26.202Z,100578.97
2023-04-20T00:30:56.580Z,100582.72
2023-04-20T00:33:27.550Z,100592.97
2023-04-20T00:35:57.921Z,100589.19
2023-04-20T00:38:29.163Z,100585.06
2023-04-20T00:41:02.524Z,100588.59
2023-04-20T00:43:34.518Z,100587.31
2023-04-20T00:46:05.369Z,100593.09
2023-04-20T00:48:35.720Z,100586.63
2023-04-20T00:51:06.867Z,100594.75
2023-04-20T00:53:39.331Z,100591.81
2023-04-20T00:56:09.722Z,100585.09
2023-04-20T00:58:41.130Z,100587.13
2023-04-20T01:01:16.736Z,100585.84
2023-04-20T01:03:49.473Z,100587.03
2023-04-20T01:06:20.158Z,100589.28
2023-04-20T01:08:52.069Z,100591.53
2023-04-20T01:11:22.645Z,100594.84
2023-04-20T01:13:52.872Z,100588.97
2023-04-20T01:16:24.524Z,100597.69
2023-04-20T01:18:54.710Z,100601.84
2023-04-20T01:21:25.211Z,100602.47
2023-04-20T01:23:55.398Z,100603.03
2023-04-20T01:26:27.129Z,100605.53
2023-04-20T01:28:57.637Z,100608.84
2023-04-20T01:31:27.798Z,100612.13
2023-04-20T01:33:58.010Z,100619.22
2023-04-20T01:36:28.497Z,100611.72
2023-04-20T01:38:59.025Z,100571.28
2023-04-20T01:41:31.805Z,100622.66
2023-04-20T01:44:02.059Z,100617.03
2023-04-20T01:46:34.178Z,100619.47
2023-04-20T01:49:04.681Z,100616.34
2023-04-20T01:51:35.515Z,100610.66
2023-04-20T01:54:06.362Z,100612.31
2023-04-20T01:56:37.455Z,100621.88
2023-04-20T01:59:07.750Z,100614.34
2023-04-20T02:01:38.355Z,100621.41
2023-04-20T02:04:08.546Z,100615.53
2023-04-20T02:06:38.675Z,100612.56
2023-04-20T02:09:12.435Z,100612.94
2023-04-20T02:11:42.947Z,100620.03
2023-04-20T02:14:13.206Z,100620.63
2023-04-20T02:16:45.141Z,100612.03
2023-04-20T02:19:15.722Z,100609.88
2023-04-20T02:21:46.032Z,100620.25
2023-04-20T02:24:17.999Z,100616.50
2023-04-20T02:26:49.523Z,100624.22
2023-04-20T02:29:19.947Z,100615.59
2023-04-20T02:31:50.588Z,100613.47
2023-04-20T02:34:21.030Z,100612.19
2023-04-20T02:36:51.292Z,100606.28
2023-04-20T02:39:21.467Z,100608.75
2023-04-20T02:41:51.801Z,100603.94
2023-04-20T02:44:22.114Z,100604.53
2023-04-20T02:46:52.524Z,100599.44
2023-04-20T02:49:24.875Z,100593.81
2023-04-20T02:51:55.346Z,100596.03
2023-04-20T02:54:26.025Z,100592.84
2023-04-20T02:56:57.920Z,100593.44
2023-04-20T02:59:29.444Z,100582.13
2023-04-20T03:02:09.882Z,100584.34
2023-04-20T03:04:41.009Z,100592.03
2023-04-20T03:07:23.011Z,100581.75
2023-04-20T03:09:53.535Z,100580.47
2023-04-20T03:12:28.169Z,100587.28
2023-04-20T03:15:24.729Z,100581.41
2023-04-20T03:18:23.823Z,100581.97
2023-04-20T03:20:55.528Z,100578.78
2023-04-20T03:23:26.396Z,100577.50
2023-04-20T03:25:56.628Z,100576.19
2023-04-20T03:28:39.539Z,100574.06
2023-04-20T03:31:10.281Z,100571.97
2023-04-20T03:33:40.511Z,100571.47
2023-04-20T03:36:10.932Z,100574.78
2023-04-20T03:38:41.242Z,100560.13
2023-04-20T03:41:12.012Z,100558.84
2023-04-20T03:43:43.281Z,100558.56
2023-04-20T03:46:13.781Z,100552.66
2023-04-20T03:48:44.401Z,100546.19
2023-04-20T03:51:14.724Z,100537.78
2023-04-20T03:53:44.906Z,100535.66
2023-04-20T03:56:16.809Z,100536.47
2023-04-20T03:58:47.993Z,100534.34
2023-04-20T04:01:25.488Z,100525.97
2023-04-20T04:03:55.973Z,100528.44
2023-04-20T04:06:26.564Z,100528.75
2023-04-20T04:08:57.405Z,100524.75
2023-04-20T04:11:31.358Z,100519.91
2023-04-20T04:14:01.922Z,100511.53
2023-04-20T04:16:32.405Z,100513.97
2023-04-20T04:19:03.334Z,100509.13
2023-04-20T04:21:33.706Z,100511.34
2023-04-20T04:24:07.134Z,100504.84
2023-04-20T04:26:42.657Z,100511.69
2023-04-20T04:29:13.509Z,100507.91
2023-04-20T04:31:43.689Z,100506.38
2023-04-20T04:34:20.004Z,100506.97
2023-04-20T04:36:55.853Z,100492.31
2023-04-20T04:39:34.802Z,100501.88
2023-04-20T04:42:13.181Z,100492.97
2023-04-20T04:44:46.566Z,100481.28
2023-04-20T04:47:23.480Z,100492.22
2023-04-20T04:49:54.966Z,100479.50
2023-04-20T04:52:25.219Z,100481.94
2023-04-20T04:54:55.323Z,100485.25
2023-04-20T04:57:25.510Z,100472.25
2023-04-20T04:59:56.204Z,100480.13
2023-04-20T05:02:26.606Z,100466.31
2023-04-20T05:04:57.636Z,100465.81
2023-04-20T05:07:27.900Z,100451.41
2023-04-20T05:09:58.165Z,100452.53
2023-04-20T05:12:28.763Z,100442.50
2023-04-20T05:14:58.890Z,100444.72
2023-04-20T05:17:29.251Z,100440.94
2023-04-20T05:20:00.186Z,100438.81
2023-04-20T05:22:30.353Z,100432.88
2023-04-20T05:25:00.770Z,100429.06
2023-04-20T05:27:31.212Z,100428.56
2023-04-20T05:30:16.699Z,100429.97
2023-04-20T05:32:52.027Z,100425.97
2023-04-20T05:35:22.991Z,100387.56
2023-04-20T05:37:53.332Z,100415.41
2023-04-20T05:40:23.553Z,100406.19
2023-04-20T05:42:53.830Z,100402.13
2023-04-20T05:45:24.086Z,100401.63
2023-04-20T05:47:55.650Z,100391.31
2023-04-20T05:50:26.192Z,100389.16
2023-04-20T05:52:56.858Z,100385.13
2023-04-20T05:55:27.131Z,100375.66
2023-04-20T05:57:57.350Z,100368.06
2023-04-20T06:00:27.565Z,100360.44
2023-04-20T06:02:58.111Z,100356.69
2023-04-20T06:05:28.819Z,100351.53
2023-04-20T06:07:59.202Z,100350.22
2023-04-20T06:10:33.663Z,100340.47
2023-04-20T06:13:04.160Z,100336.69
2023-04-20T06:15:34.902Z,100334.53
2023-04-20T06:18:05.441Z,100326.91
2023-04-20T06:20:36.271Z,100322.06
2023-04-20T06:23:07.262Z,100319.34
2023-04-20T06:25:40.566Z,100309.84
2023-04-20T06:28:10.883Z,100303.31
2023-04-20T06:30:41.394Z,100291.59
2023-04-20T06:33:15.463Z,100290.28
2023-04-20T06:35:46.261Z,100285.66
2023-04-20T06:38:16.742Z,100279.69
2023-04-20T06:40:47.047Z,100279.19
2023-04-20T06:43:17.674Z,100270.56
2023-04-20T06:45:48.163Z,100271.09
2023-04-20T06:48:31.345Z,100265.66
2023-04-20T06:51:03.400Z,100266.81
2023-04-20T06:53:33.642Z,100261.91
2023-04-20T06:56:03.992Z,100258.13
2023-04-20T06:58:34.335Z,100258.69
2023-04-20T07:01:04.708Z,100245.06
2023-04-20T07:03:35.307Z,100242.91
2023-04-20T07:06:05.844Z,100240.16
2023-04-20T07:08:35.955Z,100232.56
2023-04-20T07:11:06.341Z,100224.97
2023-04-20T07:13:36.898Z,100226.59
2023-04-20T07:16:07.956Z,100226.59
2023-04-20T07:18:38.197Z,100224.47
2023-04-20T07:21:08.977Z,100214.38
2023-04-20T07:23:39.289Z,100211.41
2023-04-20T07:26:09.772Z,100213.03
2023-04-20T07:28:39.928Z,100210.06
2023-04-20T07:31:10.119Z,100207.34
2023-04-20T07:33:40.255Z,100205.44
2023-04-20T07:36:10.480Z,100209.56
2023-04-20T07:38:40.649Z,100202.78
2023-04-20T07:41:12.454Z,100207.13
2023-04-20T07:43:42.687Z,100213.13
2023-04-20T07:46:12.940Z,100207.16
2023-04-20T07:48:43.171Z,100203.34
2023-04-20T07:51:13.737Z,100185.91
2023-04-20T07:53:44.290Z,100187.00
2023-04-20T07:56:14.365Z,100187.00
2023-04-20T07:58:44.486Z,100183.19
2023-04-20T08:01:14.642Z,100178.59
2023-04-20T08:03:44.969Z,100177.75
2023-04-20T08:06:15.824Z,100188.63
2023-04-20T08:08:46.090Z,100184.03
2023-04-20T08:11:16.834Z,100177.75
2023-04-20T08:13:47.104Z,100183.19
2023-04-20T08:16:17.742Z,100185.09
2023-04-20T08:18:51.182Z,100194.09
2023-04-20T08:21:25.548Z,100189.50
2023-04-20T08:23:56.748Z,100177.50
2023-04-20T08:26:27.233Z,100166.84
2023-04-20T08:28:57.905Z,100170.16
2023-04-20T08:31:28.255Z,100185.66
2023-04-20T08:33:58.820Z,100181.03
2023-04-20T08:36:30.345Z,100170.16
2023-04-20T08:39:09.303Z,100156.28
2023-04-20T08:41:39.563Z,100171.81
2023-04-20T08:44:10.297Z,100176.41
2023-04-20T08:46:41.801Z,100190.31
2023-04-20T08:49:14.579Z,100184.03
2023-04-20T08:51:45.361Z,100202.00
2023-04-20T08:54:16.648Z,100200.38
2023-04-20T08:56:48.964Z,100200.63
2023-04-20T08:59:19.180Z,100201.72
2023-04-20T09:01:49.561Z,100194.38
2023-04-20T09:04:21.659Z,100183.72
2023-04-20T09:06:54.154Z,100177.22
2023-04-20T09:09:24.948Z,100171.19
2023-04-20T09:12:08.468Z,100175.81
2023-04-20T09:14:49.518Z,100169.56
2023-04-20T09:17:32.486Z,100176.03
2023-04-20T09:20:02.926Z,100182.66
2023-04-20T09:22:38.539Z,100169.72
2023-04-20T09:25:16.071Z,100178.34
2023-04-20T09:28:06.931Z,100173.44
2023-04-20T09:30:47.425Z,100173.38
2023-04-20T09:33:17.662Z,100172.28
2023-04-20T09:35:47.994Z,100162.97
2023-04-20T09:38:18.687Z,100167.59
2023-04-20T09:40:49.149Z,100176.00
2023-04-20T09:43:24.990Z,100178.97
2023-04-20T09:45:55.784Z,100170.50
2023-04-20T09:48:26.290Z,100179.75
2023-04-20T09:50:57.566Z,100174.88
2023-04-20T09:53:27.945Z,100196.63
2023-04-20T09:55:59.789Z,100194.50
2023-04-20T09:58:30.409Z,100195.81
2023-04-20T10:01:00.672Z,100187.66
2023-04-20T10:03:31.526Z,100184.59
2023-04-20T10:06:01.988Z,100181.06
2023-04-20T10:08:42.601Z,100182.97
2023-04-20T10:11:13.347Z,100177.53
2023-04-20T10:13:44.037Z,100190.31
2023-04-20T10:16:23.264Z,100192.78
2023-04-20T10:19:01.001Z,100184.59
2023-04-20T10:21:35.109Z,100181.34
2023-04-20T10:24:05.695Z,100187.59
2023-04-20T10:26:39.359Z,100197.91
2023-04-20T10:29:09.814Z,100192.16
2023-04-20T10:31:43.280Z,100204.94
2023-04-20T10:34:13.483Z,100219.88
2023-04-20T10:36:44.310Z,100221.78
2023-04-20T10:39:19.701Z,100217.63
2023-04-20T10:41:57.095Z,100213.84
2023-04-20T10:44:27.396Z,100211.63
2023-04-20T10:46:57.933Z,100221.69
2023-04-20T10:49:30.276Z,100231.81
2023-04-20T10:52:00.480Z,100235.75
2023-04-20T10:54:38.118Z,100225.75
2023-04-20T10:57:08.798Z,100232.88
2023-04-20T10:59:40.670Z,100233.16
2023-04-20T11:02:12.332Z,100243.88
2023-04-20T11:04:42.728Z,100248.47
2023-04-20T11:07:16.055Z,100246.91
2023-04-20T11:09:46.331Z,100245.81
2023-04-20T11:12:17.545Z,100238.47
2023-04-20T11:14:54.782Z,100246.38
2023-04-20T11:17:37.727Z,100258.34
2023-04-20T11:20:15.814Z,100261.63
2023-04-20T11:22:46.053Z,100253.72
2023-04-20T11:25:16.415Z,100249.09
2023-04-20T11:27:47.560Z,100245.28
2023-04-20T11:30:17.850Z,100246.94
2023-04-20T11:32:55.930Z,100249.09
2023-04-20T11:35:26.420Z,100261.06
2023-04-20T11:37:58.995Z,100274.69
2023-04-20T11:40:29.338Z,100291.00
2023-04-20T11:43:01.395Z,100293.16
2023-04-20T11:45:36.232Z,100294.78
2023-04-20T11:48:07.451Z,100307.56
2023-04-20T11:50:41.008Z,100318.69
2023-04-20T11:53:16.189Z,100322.50
2023-04-20T11:55:47.405Z,100338.81
2023-04-20T11:58:17.852Z,100330.09
2023-04-20T12:00:48.438Z,100328.44
2023-04-20T12:03:19.086Z,100316.75
2023-04-20T12:06:18.313Z,100314.28
2023-04-20T12:08:55.153Z,100323.53
2023-04-20T12:11:31.742Z,100322.88
2023-04-20T12:14:25.403Z,100321.03
2023-04-20T12:16:57.430Z,100325.25
2023-04-20T12:19:29.519Z,100332.50
2023-04-20T12:21:59.682Z,100326.75
2023-04-20T12:24:30.049Z,100321.25
2023-04-20T12:27:00.883Z,100321.16
2023-04-20T12:29:34.613Z,100321.16
2023-04-20T12:32:05.154Z,100321.09
2023-04-20T12:34:35.636Z,100333.03
2023-04-20T12:37:05.830Z,100336.00
2023-04-20T12:39:36.244Z,100333.53
2023-04-20T12:42:06.953Z,100344.41
2023-04-20T12:44:37.390Z,100343.84
2023-04-20T12:47:08.097Z,100341.94
2023-04-20T12:49:38.597Z,100352.81
2023-04-20T12:52:09.075Z,100356.59
2023-04-20T12:54:40.371Z,100358.50
2023-04-20T12:57:12.470Z,100367.16
2023-04-20T12:59:42.728Z,100374.22
2023-04-20T13:02:16.149Z,100371.50
2023-04-20T13:04:47.133Z,100373.66
2023-04-20T13:07:18.251Z,100386.19
2023-04-20T13:09:48.347Z,100388.91
2023-04-20T13:12:19.343Z,100389.94
2023-04-20T13:14:49.679Z,100362.16
2023-04-20T13:17:20.439Z,100390.22
2023-04-20T13:19:51.838Z,100394.81
2023-04-20T13:22:22.479Z,100394.25
2023-04-20T13:24:53.254Z,100399.41
2023-04-20T13:27:23.358Z,100387.72
2023-04-20T13:29:54.808Z,100393.16
2023-04-20T13:32:25.297Z,100402.97
2023-04-20T13:34:55.840Z,100399.09
2023-04-20T13:37:26.390Z,100413.25
2023-04-20T13:39:57.264Z,100412.69
2023-04-20T13:42:27.664Z,100415.41
2023-04-20T13:44:58.200Z,100421.09
2023-04-20T13:47:28.988Z,100436.44
2023-04-20T13:49:59.445Z,100437.25
2023-04-20T13:52:29.824Z,100439.69
2023-04-20T13:55:00.385Z,100442.19
2023-04-20T13:57:33.297Z,100443.03
2023-04-20T14:00:04.369Z,100444.97
2023-04-20T14:02:35.473Z,100443.69
2023-04-20T14:05:07.674Z,100450.56
2023-04-20T14:07:38.430Z,100457.41
2023-04-20T14:10:09.647Z,100467.47
2023-04-20T14:12:39.948Z,100466.72
2023-04-20T14:15:11.853Z,100464.38
2023-04-20T14:17:42.169Z,100469.94
2023-04-20T14:20:13.275Z,100483.00
2023-04-20T14:22:45.112Z,100475.22
2023-04-20T14:25:15.550Z,100477.22
2023-04-20T14:27:46.138Z,100484.16
2023-04-20T14:30:17.659Z,100490.06
2023-04-20T14:32:58.486Z,100499.69
2023-04-20T14:35:29.913Z,100509.81
2023-04-20T14:38:00.099Z,100501.53
2023-04-20T14:40:30.412Z,100514.94
2023-04-20T14:43:00.806Z,100510.47
2023-04-20T14:45:31.385Z,100513.03
2023-04-20T14:48:01.622Z,100517.25
2023-04-20T14:50:33.747Z,100523.59
2023-04-20T14:53:04.090Z,100529.47
2023-04-20T14:55:34.532Z,100529.91
2023-04-20T14:58:05.083Z,100534.13
2023-04-20T15:00:35.359Z,100537.44
2023-04-20T15:03:06.009Z,100542.53
2023-04-20T15:05:36.571Z,100535.63
2023-04-20T15:08:07.074Z,100535.97
2023-04-20T15:10:38.197Z,100530.31
2023-04-20T15:13:09.138Z,100532.59
2023-04-20T15:15:48.217Z,100531.53
2023-04-20T15:18:20.638Z,100535.31
2023-04-20T15:20:52.974Z,100531.75
2023-04-20T15:23:23.461Z,100530.31
2023-04-20T15:25:54.432Z,100525.97
2023-04-20T15:28:25.096Z,100519.94
2023-04-20T15:30:55.578Z,100518.31
2023-04-20T15:33:25.719Z,100521.00
2023-04-20T15:35:55.837Z,100520.41
2023-04-20T15:38:26.005Z,100524.19
2023-04-20T15:40:56.992Z,100520.88
2023-04-20T15:43:27.222Z,100514.84
2023-04-20T15:45:57.993Z,100514.28
2023-04-20T15:48:29.258Z,100510.34
2023-04-20T15:50:59.482Z,100500.00
2023-04-20T15:53:29.656Z,100512.47
2023-04-20T15:55:59.827Z,100520.47
2023-04-20T15:58:29.941Z,100506.31
2023-04-20T16:01:00.311Z,100505.69
2023-04-20T16:03:31.224Z,100500.53
2023-04-20T16:06:01.440Z,100498.47
2023-04-20T16:08:31.583Z,100502.25
2023-04-20T16:11:01.810Z,100495.41
2023-04-20T16:13:32.035Z,100495.63
2023-04-20T16:16:02.391Z,100491.75
2023-04-20T16:18:33.736Z,100489.03
2023-04-20T16:21:04.460Z,100491.75
2023-04-20T16:23:34.752Z,100491.75
2023-04-20T16:26:05.255Z,100489.25
2023-04-20T16:28:35.411Z,100484.28
2023-04-20T16:31:06.559Z,100490.53
2023-04-20T16:33:38.467Z,100493.22
2023-04-20T16:36:08.690Z,100486.63
2023-04-20T16:38:39.343Z,100484.97
2023-04-20T16:41:09.698Z,100486.63
2023-04-20T16:43:39.892Z,100479.56
2023-04-20T16:46:13.444Z,100481.06
2023-04-20T16:48:44.146Z,100470.47
2023-04-20T16:51:14.482Z,100471.31
2023-04-20T16:53:46.760Z,100469.88
2023-04-20T16:56:18.276Z,100464.69
2023-04-20T16:58:48.776Z,100451.16
2023-04-20T17:01:19.573Z,100450.53
2023-04-20T17:03:49.902Z,100453.25
2023-04-20T17:06:20.099Z,100446.41
2023-04-20T17:08:51.685Z,100442.88
2023-04-20T17:11:21.873Z,100434.78
2023-04-20T17:13:52.050Z,100433.59
2023-04-20T17:16:22.346Z,100423.59
2023-04-20T17:18:53.895Z,100419.44
2023-04-20T17:21:24.165Z,100412.63
2023-04-20T17:23:54.529Z,100405.31
2023-04-20T17:26:24.857Z,100406.59
2023-04-20T17:28:55.459Z,100405.78
2023-04-20T17:31:25.746Z,100411.19
2023-04-20T17:33:57.156Z,100416.84
2023-04-20T17:36:28.119Z,100404.81
2023-04-20T17:38:58.517Z,100411.63
2023-04-20T17:41:28.952Z,100402.09
2023-04-20T17:43:59.111Z,100396.28
2023-04-20T17:46:29.315Z,100402.97
2023-04-20T17:48:59.540Z,100394.03
2023-04-20T17:51:29.810Z,100386.38
2023-04-20T17:54:00.458Z,100383.91
2023-04-20T17:56:30.608Z,100379.31
2023-04-20T17:59:00.700Z,100377.66
2023-04-20T18:01:32.128Z,100377.06
2023-04-20T18:04:02.448Z,100372.72
2023-04-20T18:06:34.711Z,100365.63
2023-04-20T18:09:06.357Z,100359.41
2023-04-20T18:11:36.483Z,100365.88
2023-04-20T18:14:06.710Z,100367.75
2023-04-20T18:16:37.031Z,100369.03
2023-04-20T18:19:07.162Z,100383.59
2023-04-20T18:21:37.398Z,100376.34
2023-04-20T18:24:08.466Z,100380.31
2023-04-20T18:26:38.615Z,100373.22
2023-04-20T18:29:08.739Z,100375.56
2023-04-20T18:31:38.940Z,100369.56
2023-04-20T18:34:10.923Z,100373.31
2023-04-20T18:36:42.014Z,100375.41
2023-04-20T18:39:12.548Z,100373.31
2023-04-20T18:41:42.937Z,100372.50
2023-04-20T18:44:13.101Z,100368.97
2023-04-20T18:46:44.060Z,100371.06
2023-04-20T18:49:14.256Z,100359.66
2023-04-20T18:51:44.746Z,100363.41
2023-04-20T18:54:15.217Z,100356.34
2023-04-20T18:56:45.295Z,100358.47
2023-04-20T18:59:15.486Z,100355.97
2023-04-20T19:01:45.628Z,100355.16
2023-04-20T19:04:16.004Z,100359.72
2023-04-20T19:06:46.276Z,100353.50
2023-04-20T19:09:16.440Z,100351.00
2023-04-20T19:11:46.457Z,100348.53
2023-04-20T19:14:16.944Z,100355.00
2023-04-20T19:16:47.601Z,100344.41
2023-04-20T19:19:17.756Z,100347.34
2023-04-20T19:21:49.340Z,100345.69
2023-04-20T19:24:19.877Z,100344.03
2023-04-20T19:26:50.242Z,100347.78
2023-04-20T19:29:20.374Z,100341.56
2023-04-20T19:31:50.710Z,100346.16
2023-04-20T19:34:20.917Z,100339.06
2023-04-20T19:36:51.187Z,100342.00
2023-04-20T19:39:21.770Z,100339.53
2023-04-20T19:41:52.335Z,100343.25
2023-04-20T19:44:22.777Z,100351.97
2023-04-20T19:46:53.735Z,100341.59
2023-04-20T19:49:23.857Z,100339.94
2023-04-20T19:51:53.967Z,100351.56
2023-04-20T19:54:24.338Z,100339.13
2023-04-20T19:56:54.644Z,100345.34
2023-04-20T19:59:25.163Z,100343.72
2023-04-20T20:01:55.463Z,100345.56
2023-04-20T20:04:25.989Z,100342.84
2023-04-20T20:06:56.598Z,100359.31
2023-04-20T20:09:26.664Z,100340.41
2023-04-20T20:11:56.937Z,100345.81
2023-04-20T20:14:27.584Z,100346.00
2023-04-20T20:17:03.528Z,100356.63
2023-04-20T20:19:37.171Z,100351.22
2023-04-20T20:22:07.384Z,100354.94
2023-04-20T20:24:37.687Z,100351.41
2023-04-20T20:27:07.955Z,100343.56
2023-04-20T20:29:38.534Z,100355.38
2023-04-20T20:32:08.620Z,100352.09
2023-04-20T20:34:39.019Z,100356.91
2023-04-20T20:37:11.550Z,100350.44
2023-04-20T20:39:41.816Z,100367.91
2023-04-20T20:42:14.034Z,100361.69
2023-04-20T20:44:44.353Z,100368.78
2023-04-20T20:47:14.561Z,100370.41
2023-04-20T20:49:45.249Z,100374.75
2023-04-20T20:52:15.777Z,100375.81
2023-04-20T20:54:46.386Z,100379.59
2023-04-20T20:57:16.592Z,100385.00
2023-04-20T20:59:46.756Z,100384.13
2023-04-20T21:02:16.990Z,100398.72
2023-04-20T21:04:47.232Z,100399.78
2023-04-20T21:07:17.411Z,100398.09
2023-04-20T21:09:47.750Z,100408.09
2023-04-20T21:12:17.905Z,100411.84
2023-04-20T21:14:48.128Z,100412.88
2023-04-20T21:17:18.670Z,100412.88
2023-04-20T21:19:48.796Z,100421.22
2023-04-20T21:22:18.969Z,100418.72
2023-04-20T21:24:49.185Z,100417.91
2023-04-20T21:27:19.464Z,100426.25
2023-04-20T21:29:49.602Z,100429.97
2023-04-20T21:32:19.767Z,100432.66
2023-04-20T21:34:50.040Z,100435.38
2023-04-20T21:37:20.569Z,100438.31
2023-04-20T21:39:53.810Z,100436.63
2023-04-20T21:42:23.953Z,100437.47
2023-04-20T21:44:54.113Z,100441.03
2023-04-20T21:47:24.343Z,100441.22
2023-04-20T21:49:54.710Z,100440.16
2023-04-20T21:52:26.239Z,100450.16
2023-04-20T21:54:56.315Z,100452.03
2023-04-20T21:57:26.686Z,100457.44
2023-04-20T21:59:57.276Z,100465.53
2023-04-20T22:02:27.526Z,100468.25
2023-04-20T22:04:57.803Z,100469.06
2023-04-20T22:07:29.031Z,100477.41
2023-04-20T22:09:59.135Z,100481.38
2023-04-20T22:12:39.316Z,100480.94
2023-04-20T22:15:11.730Z,100489.91
2023-04-20T22:17:42.628Z,100484.09
2023-04-20T22:20:13.096Z,100494.91
2023-04-20T22:22:43.486Z,100496.16
2023-04-20T22:25:13.791Z,100487.84
2023-04-20T22:27:44.116Z,100489.34
2023-04-20T22:30:14.512Z,100488.28
2023-04-20T22:32:44.905Z,100493.69
2023-04-20T22:35:15.327Z,100490.38
2023-04-20T22:37:45.559Z,100501.00
2023-04-20T22:40:15.896Z,100493.31
2023-04-20T22:42:46.061Z,100498.72
2023-04-20T22:45:17.980Z,100503.25
2023-04-20T22:47:48.675Z,100507.66
2023-04-20T22:50:19.133Z,100512.44
2023-04-20T22:52:50.986Z,100510.78
2023-04-20T22:55:21.272Z,100524.50
2023-04-20T22:57:51.525Z,100515.19
2023-04-20T23:00:21.878Z,100516.19
2023-04-20T23:02:52.886Z,100524.53
2023-04-20T23:05:23.287Z,100527.81
2023-04-20T23:07:55.227Z,100529.19
2023-04-20T23:10:29.903Z,100531.75
2023-04-20T23:12:59.989Z,100537.03
2023-04-20T23:15:30.183Z,100545.06
2023-04-20T23:18:00.497Z,100541.41
2023-04-20T23:20:30.720Z,100556.69
2023-04-20T23:23:00.886Z,100559.72
2023-04-20T23:25:31.065Z,100565.66
2023-04-20T23:28:01.557Z,100567.50
2023-04-20T23:30:31.871Z,100568.88
2023-04-20T23:33:02.075Z,100570.06
2023-04-20T23:35:32.367Z,100581.66
2023-04-20T23:38:02.668Z,100577.44
2023-04-20T23:40:33.496Z,100517.88
2023-04-20T23:43:03.658Z,100594.63
2023-04-20T23:45:33.926Z,100595.81
2023-04-20T23:48:04.109Z,100595.34
2023-04-20T23:50:34.543Z,100611.75
2023-04-20T23:53:07.211Z,100605.88
2023-04-20T23:55:37.666Z,100616.28
2023-04-20T23:58:08.074Z,100614.78
